Time;durP1;ratioP1;P1;durP2;ratioP2;P2;SDS_P1;SDS_P2;PMS_P1;PMS_P2;Temp;Humidity;BMP_temperature;BMP_pressure;BME280_temperature;BME280_humidity;BME280_pressure;Samples;Min_cycle;Max_cycle;Signal;HPM_P1;HPM_P2
2024/03/21 00:00:17;;;;;;;15.43;7.65;;;;;;;-1.23;49.02;100849.13;5060965;28;20094;-83
2024/03/21 00:02:46;;;;;;;15.52;7.53;;;;;;;-0.75;49.98;100924.97;5039818;28;20043;-83
2024/03/21 00:05:14;;;;;;;19.05;8.52;;;;;;;-0.76;48.88;100920.63;5064851;28;20131;-84
2024/03/21 00:07:52;;;;;;;16.63;8.25;;;;;;;-1.23;49.60;100848.22;5066693;28;20068;-84
2024/03/21 00:10:21;;;;;;;16.73;8.00;;;;;;;-0.83;49.39;100919.44;5068991;28;20800;-84
2024/03/21 00:12:49;;;;;;;14.88;7.38;;;;;;;-0.89;49.86;100910.53;5039318;28;20066;-86
2024/03/21 00:15:16;;;;;;;14.68;8.48;;;;;;;-0.89;49.30;100895.22;5054493;28;20066;-80
2024/03/21 00:17:44;;;;;;;17.58;8.05;;;;;;;-1.07;49.95;100867.84;5049752;28;20076;-80
2024/03/21 00:20:11;;;;;;;20.10;9.02;;;;;;;-1.17;49.81;100852.78;5053313;28;20051;-80
2024/03/21 00:22:39;;;;;;;14.80;9.00;;;;;;;-1.25;49.98;100843.06;5061390;28;20036;-80
2024/03/21 00:25:05;;;;;;;16.65;8.55;;;;;;;-1.28;49.61;100860.75;5061063;28;20068;-79
2024/03/21 00:27:33;;;;;;;14.80;7.50;;;;;;;-1.03;50.17;100905.56;5055024;28;20063;-80
2024/03/21 00:30:03;;;;;;;14.27;7.38;;;;;;;-1.21;50.37;100883.28;5050692;28;20131;-81
2024/03/21 00:32:35;;;;;;;17.42;7.22;;;;;;;-1.35;49.72;100866.31;5067079;28;20036;-84
2024/03/21 00:35:02;;;;;;;19.77;8.25;;;;;;;-1.43;50.23;100845.44;5048630;28;20041;-82
2024/03/21 00:37:32;;;;;;;15.60;7.85;;;;;;;-1.30;50.80;100854.69;5032768;28;20059;-72
2024/03/21 00:39:59;;;;;;;17.50;8.07;;;;;;;-1.48;50.08;100828.13;5046146;28;20073;-83
2024/03/21 00:42:26;;;;;;;12.95;8.25;;;;;;;-1.32;50.35;100857.94;5054501;28;20071;-87
2024/03/21 00:44:53;;;;;;;15.70;8.18;;;;;;;-1.11;50.25;100920.47;5059863;28;20045;-84
2024/03/21 00:47:20;;;;;;;14.93;7.18;;;;;;;-1.19;50.66;100908.91;5052331;28;20040;-82
2024/03/21 00:49:47;;;;;;;16.55;7.60;;;;;;;-1.21;50.14;100915.63;5061840;28;20044;-81
2024/03/21 00:52:13;;;;;;;13.98;7.25;;;;;;;-1.69;50.64;100852.50;5035709;28;20506;-81
2024/03/21 00:54:41;;;;;;;15.48;7.57;;;;;;;-1.46;50.61;100890.38;5072429;28;20067;-81
2024/03/21 00:57:07;;;;;;;12.88;7.43;;;;;;;-1.67;50.59;100847.50;5050111;28;20051;-82
2024/03/21 00:59:36;;;;;;;20.33;7.72;;;;;;;-1.71;50.69;100848.97;5065436;28;21595;-81
2024/03/21 01:02:02;;;;;;;15.05;7.57;;;;;;;-1.77;51.12;100840.97;5065054;28;20048;-72
2024/03/21 01:04:31;;;;;;;15.35;6.93;;;;;;;-1.41;51.37;100923.03;5031252;28;20044;-84
2024/03/21 01:06:58;;;;;;;19.38;7.30;;;;;;;-1.39;51.17;100913.78;5044301;28;20434;-83
2024/03/21 01:09:25;;;;;;;14.55;7.05;;;;;;;-2.14;51.14;100787.81;5076209;28;20040;-87
2024/03/21 01:12:06;;;;;;;14.30;6.93;;;;;;;-1.96;51.15;100793.09;5047481;28;20545;-88
2024/03/21 01:14:38;;;;;;;16.42;7.25;;;;;;;-2.03;51.07;100775.66;5067655;28;20083;-87
2024/03/21 01:17:07;;;;;;;14.70;7.57;;;;;;;-1.42;50.83;100882.06;5055410;28;20040;-88
2024/03/21 01:19:39;;;;;;;17.63;7.88;;;;;;;-1.48;51.06;100889.41;5080016;28;20080;-90
2024/03/21 01:22:08;;;;;;;14.93;7.63;;;;;;;-1.71;50.86;100873.63;5077234;28;20063;-88
2024/03/21 01:24:37;;;;;;;14.77;7.82;;;;;;;-1.85;51.07;100870.28;5081407;28;20399;-89
2024/03/21 01:27:05;;;;;;;19.05;8.93;;;;;;;-1.94;50.98;100868.06;5064834;28;20048;-87
2024/03/21 01:29:33;;;;;;;18.25;9.40;;;;;;;-1.99;51.05;100856.69;5046167;28;20125;-90
2024/03/21 01:31:59;;;;;;;16.48;8.40;;;;;;;-2.16;50.95;100853.13;5067547;28;20099;-87
2024/03/21 01:34:26;;;;;;;21.17;8.18;;;;;;;-2.20;51.84;100867.41;5058169;28;20048;-87
2024/03/21 01:36:57;;;;;;;17.70;8.88;;;;;;;-1.96;51.87;100907.91;5062618;28;20131;-85
2024/03/21 01:39:32;;;;;;;15.32;7.57;;;;;;;-2.00;52.19;100905.97;5061007;28;20122;-89
2024/03/21 01:41:58;;;;;;;16.08;7.75;;;;;;;-1.94;52.00;100916.53;5080901;28;20304;-86
2024/03/21 01:44:24;;;;;;;19.73;8.35;;;;;;;-2.35;51.81;100848.63;5093243;28;20108;-85
2024/03/21 01:46:50;;;;;;;16.20;7.95;;;;;;;-2.79;52.47;100779.78;5047697;28;20044;-85
2024/03/21 01:49:18;;;;;;;17.92;7.70;;;;;;;-2.36;52.42;100850.28;5071038;28;20035;-86
2024/03/21 01:51:46;;;;;;;15.52;8.25;;;;;;;-2.36;51.93;100869.81;5078968;28;20410;-87
2024/03/21 01:54:17;;;;;;;19.90;8.60;;;;;;;-2.54;52.32;100834.78;5084767;28;20048;-89
2024/03/21 01:56:44;;;;;;;16.80;8.25;;;;;;;-2.62;52.34;100841.06;5069614;28;20040;-88
2024/03/21 01:59:13;;;;;;;20.33;8.50;;;;;;;-2.67;52.45;100847.53;5074347;28;20043;-86
2024/03/21 02:01:43;;;;;;;14.10;8.15;;;;;;;-2.49;53.13;100855.44;5060943;28;20047;-88
2024/03/21 02:04:10;;;;;;;20.33;8.00;;;;;;;-2.51;52.47;100860.44;5069522;28;20086;-83
2024/03/21 02:06:36;;;;;;;19.33;7.70;;;;;;;-2.62;52.92;100841.06;5065463;28;20039;-82
2024/03/21 02:09:03;;;;;;;16.60;7.15;;;;;;;-2.39;53.08;100874.72;5046407;28;20036;-85
2024/03/21 02:11:30;;;;;;;14.13;7.95;;;;;;;-2.55;53.40;100849.97;5064932;28;20036;-84
2024/03/21 02:13:56;;;;;;;17.08;8.23;;;;;;;-2.35;53.55;100887.75;5071647;28;20035;-84
2024/03/21 02:16:27;;;;;;;22.80;7.97;;;;;;;-2.67;53.37;100839.91;5063459;28;20032;-86
2024/03/21 02:18:54;;;;;;;13.27;7.82;;;;;;;-2.66;53.38;100844.22;5059932;28;20036;-87
2024/03/21 02:24:05;;;;;;;14.93;7.18;;;;;;;-2.68;53.49;100844.13;5090906;28;20104;-83
2024/03/21 02:26:31;;;;;;;14.05;7.35;;;;;;;-2.50;53.70;100882.59;5055141;28;20480;-80
2024/03/21 02:28:57;;;;;;;16.67;7.60;;;;;;;-2.51;53.72;100875.72;5050376;28;20061;-84
2024/03/21 02:31:23;;;;;;;18.13;7.72;;;;;;;-2.38;53.96;100902.84;5063232;28;20101;-82
2024/03/21 02:33:52;;;;;;;13.45;7.10;;;;;;;-2.37;53.85;100888.44;5055434;28;20059;-83
2024/03/21 02:36:19;;;;;;;16.25;7.57;;;;;;;-2.40;53.57;100889.13;5055208;28;20046;-79
2024/03/21 02:38:45;;;;;;;15.73;7.57;;;;;;;-2.33;53.73;100895.50;5059378;28;20051;-77
2024/03/21 02:41:12;;;;;;;17.58;8.95;;;;;;;-2.65;53.47;100846.88;5059020;28;20044;-76
2024/03/21 02:43:39;;;;;;;18.30;8.07;;;;;;;-2.30;53.84;100906.75;5060642;28;20044;-76
2024/03/21 02:46:05;;;;;;;19.05;7.85;;;;;;;-2.77;54.14;100816.41;5063820;28;20039;-80
2024/03/21 02:48:32;;;;;;;21.25;8.50;;;;;;;-2.64;53.56;100806.97;5057521;28;20040;-80
2024/03/21 02:50:58;;;;;;;17.45;8.13;;;;;;;-2.17;53.51;100902.38;5059492;28;20036;-79
2024/03/21 02:53:24;;;;;;;15.15;8.05;;;;;;;-2.18;53.80;100906.63;5058399;28;20056;-81
2024/03/21 02:55:52;;;;;;;18.88;8.80;;;;;;;-2.40;53.87;100875.50;5045913;28;20071;-79
2024/03/21 02:58:18;;;;;;;14.75;8.13;;;;;;;-2.51;53.32;100857.00;5059706;28;20119;-81
2024/03/21 03:00:44;;;;;;;15.70;8.77;;;;;;;-2.59;54.03;100851.47;5056080;28;20431;-81
2024/03/21 03:03:11;;;;;;;14.68;7.80;;;;;;;-2.30;53.58;100900.75;5046388;28;20032;-80
2024/03/21 03:05:41;;;;;;;18.27;9.00;;;;;;;-2.49;54.12;100878.38;5058721;28;20062;-81
2024/03/21 03:08:07;;;;;;;16.80;8.43;;;;;;;-2.36;54.00;100905.50;5057039;28;20033;-81
2024/03/21 03:10:35;;;;;;;18.15;9.73;;;;;;;-2.38;54.02;100902.00;5050136;28;20036;-81
2024/03/21 03:13:04;;;;;;;18.15;8.70;;;;;;;-2.73;54.48;100848.91;5044342;28;20062;-82
2024/03/21 03:15:30;;;;;;;17.45;9.32;;;;;;;-2.73;53.97;100854.03;5032447;28;20541;-79
2024/03/21 03:17:56;;;;;;;16.38;8.70;;;;;;;-2.58;54.20;100869.38;5044999;28;20066;-80
2024/03/21 03:20:31;;;;;;;16.55;8.70;;;;;;;-2.40;54.30;100896.78;5048404;28;20131;-81
2024/03/21 03:22:57;;;;;;;16.70;8.85;;;;;;;-2.63;54.09;100867.34;5033161;28;20039;-82
2024/03/21 03:25:24;;;;;;;21.20;9.90;;;;;;;-2.58;54.23;100878.72;5057100;28;20044;-81
2024/03/21 03:27:50;;;;;;;21.58;9.75;;;;;;;-2.83;54.22;100840.63;5062070;28;20044;-82
2024/03/21 03:30:18;;;;;;;20.52;9.00;;;;;;;-2.91;54.14;100823.22;5056725;28;20044;-83
2024/03/21 03:33:05;;;;;;;19.63;9.20;;;;;;;-2.50;54.14;100895.34;5058758;28;20060;-82
2024/03/21 03:35:39;;;;;;;16.05;8.07;;;;;;;-2.93;54.38;100819.69;5043466;28;20040;-83
2024/03/21 03:38:08;;;;;;;23.45;8.88;;;;;;;-2.85;54.40;100835.44;5046604;28;20040;-83
2024/03/21 03:40:35;;;;;;;17.70;8.55;;;;;;;-2.64;54.36;100871.53;5059712;28;20123;-83
2024/03/21 03:43:03;;;;;;;21.25;9.48;;;;;;;-2.45;54.47;100900.75;5048864;28;20510;-85
2024/03/21 03:45:29;;;;;;;20.73;10.05;;;;;;;-2.84;54.20;100833.75;5041176;28;20051;-82
2024/03/21 03:47:56;;;;;;;17.67;8.82;;;;;;;-2.40;54.71;100898.47;5047522;28;20135;-84
2024/03/21 03:50:22;;;;;;;17.10;8.35;;;;;;;-2.30;54.69;100905.88;5032170;28;20098;-83
2024/03/21 03:52:53;;;;;;;19.83;9.00;;;;;;;-2.30;55.13;100891.47;5062464;28;20044;-84
2024/03/21 03:55:21;;;;;;;18.95;8.40;;;;;;;-2.59;54.51;100825.97;5072784;28;20040;-83
2024/03/21 03:57:47;;;;;;;19.30;10.05;;;;;;;-2.91;54.40;100763.72;5054512;28;20040;-82
2024/03/21 04:00:13;;;;;;;20.95;9.55;;;;;;;-2.17;54.78;100874.34;5047323;28;20098;-86
2024/03/21 04:02:43;;;;;;;15.85;9.80;;;;;;;-1.89;54.43;100904.94;5057951;28;20032;-79
2024/03/21 04:05:09;;;;;;;18.25;8.70;;;;;;;-1.98;54.86;100868.66;5052606;28;20087;-84
2024/03/21 04:07:37;;;;;;;19.85;10.38;;;;;;;-1.86;54.48;100882.13;5064058;28;20033;-83
2024/03/21 04:10:15;;;;;;;19.08;9.68;;;;;;;-1.68;54.15;100892.53;5062128;28;20136;-87
2024/03/21 04:12:44;;;;;;;24.13;12.50;;;;;;;-1.83;54.25;100838.06;5052820;28;20546;-85
2024/03/21 04:15:10;;;;;;;21.52;10.27;;;;;;;-1.14;54.74;100919.38;5054447;28;20037;-88
2024/03/21 04:17:37;;;;;;;22.98;10.80;;;;;;;-1.61;54.69;100804.44;5060026;28;20036;-80
2024/03/21 04:20:06;;;;;;;24.48;9.88;;;;;;;-0.84;54.20;100907.44;5054940;28;20036;-78
2024/03/21 04:22:36;;;;;;;18.27;9.38;;;;;;;-0.50;53.76;100911.84;5056994;28;20033;-82
2024/03/21 04:25:05;;;;;;;18.85;10.52;;;;;;;-0.24;54.22;100917.47;5043434;28;20421;-80
2024/03/21 04:27:32;;;;;;;21.05;10.40;;;;;;;0.01;53.45;100917.88;5047717;28;20036;-82
2024/03/21 04:30:01;;;;;;;21.80;11.60;;;;;;;0.17;53.76;100899.94;5050608;28;20036;-81
2024/03/21 04:32:30;;;;;;;;;;;;;;;0.51;53.83;100916.13;5036770;28;20039;-83
2024/03/21 04:34:56;;;;;;;19.40;9.90;;;;;;;0.30;52.89;100832.28;5059169;28;19920;-81
2024/03/21 04:37:22;;;;;;;18.33;9.90;;;;;;;1.25;53.04;100891.47;5074444;28;20048;-87
2024/03/21 04:39:48;;;;;;;21.95;10.60;;;;;;;1.57;52.43;100824.47;5072584;28;20036;-85
2024/03/21 04:42:17;;;;;;;17.60;9.38;;;;;;;2.41;51.39;100880.25;5063179;28;20036;-86
2024/03/21 04:44:45;;;;;;;15.30;8.93;;;;;;;2.94;51.19;100890.97;5079903;28;20052;-86
2024/03/21 04:47:12;;;;;;;18.77;9.23;;;;;;;3.16;50.11;100856.66;5063459;28;20103;-85
2024/03/21 04:49:38;;;;;;;21.45;10.20;;;;;;;3.30;49.92;100835.75;5063995;28;20117;-87
2024/03/21 04:52:05;;;;;;;18.23;10.45;;;;;;;3.75;50.03;100889.69;5061188;28;20033;-84
2024/03/21 04:54:31;;;;;;;15.40;9.05;;;;;;;4.21;49.28;100913.66;5069410;28;20035;-83
2024/03/21 04:56:57;;;;;;;17.05;10.73;;;;;;;5.16;49.17;100882.31;5058635;28;20054;-81
2024/03/21 04:59:27;;;;;;;16.42;10.18;;;;;;;6.92;47.84;100863.78;5066518;28;20067;-80
2024/03/21 05:01:56;;;;;;;16.02;10.50;;;;;;;8.74;46.41;100854.31;5070442;28;20042;-80
2024/03/21 05:04:23;;;;;;;17.92;9.93;;;;;;;10.17;44.46;100835.25;5040926;28;20127;-81
2024/03/21 05:06:51;;;;;;;17.30;10.88;;;;;;;11.78;42.44;100858.88;5051944;28;20052;-80
2024/03/21 05:09:20;;;;;;;20.15;11.38;;;;;;;13.02;40.41;100849.34;5055375;28;20135;-84
2024/03/21 05:11:47;;;;;;;19.27;11.45;;;;;;;14.24;38.46;100852.31;5045878;28;20040;-85
2024/03/21 05:14:13;;;;;;;19.02;10.77;;;;;;;15.35;36.77;100860.91;5060280;28;20058;-84
2024/03/21 05:16:39;;;;;;;20.15;12.35;;;;;;;16.06;35.02;100811.88;5071988;28;20064;-88
2024/03/21 05:19:06;;;;;;;17.65;11.82;;;;;;;17.24;33.58;100851.88;5043843;28;20065;-89
2024/03/21 05:21:34;;;;;;;19.38;11.77;;;;;;;17.94;32.16;100834.63;5066348;28;20474;-89
2024/03/21 05:24:01;;;;;;;18.40;12.13;;;;;;;18.61;30.99;100792.59;5066017;28;20106;-87
2024/03/21 05:26:27;;;;;;;21.10;12.68;;;;;;;19.78;29.52;100835.03;5078359;28;20047;-88
2024/03/21 05:28:53;;;;;;;19.38;13.45;;;;;;;20.46;28.41;100824.94;5102154;28;20032;-88
2024/03/21 05:31:21;;;;;;;16.38;12.55;;;;;;;21.19;27.14;100838.28;5075713;28;20577;-85
2024/03/21 05:33:47;;;;;;;23.98;12.57;;;;;;;21.92;26.36;100821.44;5081495;28;20043;-88
2024/03/21 05:36:15;;;;;;;28.02;17.52;;;;;;;22.54;25.41;100830.41;5073452;28;20040;-81
2024/03/21 05:38:43;;;;;;;22.30;15.23;;;;;;;23.33;25.03;100831.41;5063147;28;20048;-80
2024/03/21 05:41:09;;;;;;;24.80;14.77;;;;;;;23.88;24.25;100806.66;5061240;28;20044;-79
2024/03/21 05:43:35;;;;;;;28.23;16.73;;;;;;;24.48;23.41;100799.31;5060989;28;20039;-80
2024/03/21 05:46:02;;;;;;;21.23;16.45;;;;;;;25.30;22.45;100834.09;5060571;28;20044;-79
2024/03/21 05:48:28;;;;;;;26.10;17.20;;;;;;;25.84;21.65;100802.69;5033976;28;20434;-76
2024/03/21 05:50:55;;;;;;;23.63;16.65;;;;;;;26.43;20.95;100825.97;5050548;28;20413;-80
2024/03/21 05:53:21;;;;;;;23.60;17.80;;;;;;;26.96;20.26;100841.56;5066682;28;20799;-85
2024/03/21 05:55:55;;;;;;;25.33;17.30;;;;;;;27.14;19.65;100830.66;5056865;28;20127;-80
2024/03/21 05:58:22;;;;;;;23.88;18.50;;;;;;;27.69;19.54;100846.88;5050883;28;20141;-79
2024/03/21 06:01:32;;;;;;;23.88;18.77;;;;;;;28.34;18.73;100829.25;5053913;28;20505;-82
2024/03/21 06:03:51;;;;;;;29.70;19.90;;;;;;;29.10;18.70;100843.66;5079907;28;20040;-78
2024/03/21 06:06:17;;;;;;;27.67;19.27;;;;;;;29.55;18.06;100847.69;5059430;28;20162;-74
2024/03/21 06:08:44;;;;;;;24.05;19.52;;;;;;;29.99;17.37;100843.59;5066133;28;20040;-79
2024/03/21 06:11:10;;;;;;;26.65;19.40;;;;;;;30.34;17.24;100832.00;5063017;28;20521;-79
2024/03/21 06:13:36;;;;;;;22.33;18.95;;;;;;;30.36;16.55;100811.25;5079692;28;20036;-78
2024/03/21 06:16:02;;;;;;;20.23;18.02;;;;;;;30.53;16.61;100833.28;5063439;28;20047;-80
2024/03/21 06:18:28;;;;;;;26.17;19.25;;;;;;;30.77;16.31;100818.97;5063791;28;20037;-74
2024/03/21 06:20:54;;;;;;;22.55;19.80;;;;;;;31.23;15.66;100841.34;5047110;28;20066;-73
2024/03/21 06:23:21;;;;;;;27.90;18.85;;;;;;;31.74;15.30;100823.78;5059158;28;20032;-73
2024/03/21 06:25:47;;;;;;;25.85;19.48;;;;;;;32.23;15.29;100802.66;5061327;28;20048;-76
2024/03/21 06:28:15;;;;;;;24.83;19.42;;;;;;;32.64;15.45;100842.38;5056705;28;20059;-74
2024/03/21 06:30:42;;;;;;;24.77;19.65;;;;;;;33.04;14.58;100837.06;5042831;28;20394;-73
2024/03/21 06:33:08;;;;;;;25.08;19.55;;;;;;;33.53;14.80;100822.94;5055584;28;20055;-71
2024/03/21 06:35:35;;;;;;;25.05;18.13;;;;;;;33.91;14.71;100815.06;5028971;28;20054;-74
2024/03/21 06:38:01;;;;;;;23.30;17.63;;;;;;;34.44;14.39;100797.53;5037405;28;20491;-74
2024/03/21 06:40:27;;;;;;;23.55;18.48;;;;;;;35.11;14.43;100818.22;5054543;28;20042;-75
2024/03/21 06:42:53;;;;;;;21.80;17.23;;;;;;;35.56;13.88;100832.81;5029045;28;20037;-72
2024/03/21 06:45:21;;;;;;;22.08;16.67;;;;;;;35.84;13.52;100835.47;5045515;28;20098;-69
2024/03/21 06:47:50;;;;;;;19.75;14.88;;;;;;;36.10;13.48;100834.69;5050568;28;20143;-73
2024/03/21 06:50:18;;;;;;;17.70;14.90;;;;;;;36.42;12.82;100827.84;5041541;28;20169;-69
2024/03/21 06:52:49;;;;;;;15.85;14.15;;;;;;;36.96;13.10;100833.13;5051845;28;20037;-68
2024/03/21 06:55:17;;;;;;;17.95;15.48;;;;;;;37.12;12.89;100826.94;5042518;28;20045;-69
2024/03/21 06:57:54;;;;;;;19.33;16.52;;;;;;;37.37;12.46;100827.03;5055292;28;20068;-68
2024/03/21 07:00:21;;;;;;;19.50;16.85;;;;;;;37.11;12.27;100811.69;5051448;28;20056;-72
2024/03/21 07:02:48;;;;;;;19.85;17.35;;;;;;;37.42;12.47;100818.38;5054144;28;20066;-70
2024/03/21 07:05:14;;;;;;;19.48;16.88;;;;;;;38.03;12.55;100827.19;5053320;28;20044;-72
2024/03/21 07:07:40;;;;;;;19.67;17.40;;;;;;;38.61;12.12;100823.59;5040103;28;20135;-70
2024/03/21 07:10:06;;;;;;;20.35;18.13;;;;;;;38.96;11.87;100816.00;5053179;28;20132;-69
2024/03/21 07:12:32;;;;;;;21.33;17.45;;;;;;;39.40;12.11;100818.19;5041303;28;20138;-71
2024/03/21 07:14:58;;;;;;;20.00;17.83;;;;;;;39.96;12.10;100816.31;5053444;28;20140;-71
2024/03/21 07:17:26;;;;;;;19.10;17.17;;;;;;;40.48;11.44;100804.59;5035251;28;20449;-70
2024/03/21 07:19:52;;;;;;;20.48;16.80;;;;;;;40.66;11.39;100798.78;5055467;28;20128;-71
2024/03/21 07:22:18;;;;;;;18.65;16.73;;;;;;;41.04;11.46;100810.63;5050775;28;20032;-70
2024/03/21 07:24:44;;;;;;;18.50;15.40;;;;;;;41.31;11.37;100800.03;5053928;28;20033;-69
2024/03/21 07:27:11;;;;;;;15.30;13.40;;;;;;;41.02;10.49;100794.41;5054462;28;20037;-74
2024/03/21 07:29:37;;;;;;;13.25;11.95;;;;;;;40.28;10.28;100776.19;5053074;28;20044;-73
2024/03/21 07:32:06;;;;;;;11.25;10.15;;;;;;;40.28;10.47;100804.28;5048690;28;20033;-79
2024/03/21 07:34:32;;;;;;;12.73;11.13;;;;;;;40.20;10.70;100798.91;5052559;28;20523;-79
2024/03/21 07:36:59;;;;;;;12.10;10.73;;;;;;;40.39;10.59;100767.56;5042966;28;20047;-69
2024/03/21 07:39:25;;;;;;;14.32;12.80;;;;;;;41.07;10.15;100786.50;5039776;28;20105;-70
2024/03/21 07:41:52;;;;;;;16.65;14.30;;;;;;;41.27;10.43;100763.25;5051561;28;20040;-73
2024/03/21 07:44:19;;;;;;;15.25;13.68;;;;;;;41.47;10.69;100797.06;5042947;28;20137;-70
2024/03/21 07:46:45;;;;;;;16.85;15.13;;;;;;;40.70;10.13;100796.56;5025037;28;20032;-71
2024/03/21 07:49:12;;;;;;;20.67;17.80;;;;;;;40.46;10.68;100812.13;5042490;28;20044;-70
2024/03/21 07:51:39;;;;;;;18.73;16.77;;;;;;;40.44;10.52;100792.38;5033175;28;20530;-71
2024/03/21 07:54:05;;;;;;;20.65;16.23;;;;;;;40.09;10.12;100778.38;5029079;28;20123;-69
2024/03/21 07:56:31;;;;;;;18.95;16.50;;;;;;;39.34;10.45;100799.03;5046403;28;20507;-70
2024/03/21 07:58:57;;;;;;;18.30;16.25;;;;;;;38.61;10.37;100802.66;5041117;28;20043;-71
2024/03/21 08:01:25;;;;;;;17.67;15.82;;;;;;;38.82;10.88;100803.97;5054137;28;20486;-69
2024/03/21 08:03:52;;;;;;;16.58;14.70;;;;;;;38.88;10.84;100776.09;5045280;28;20488;-70
2024/03/21 08:06:18;;;;;;;16.77;14.80;;;;;;;39.41;10.74;100800.84;5053893;28;20043;-71
2024/03/21 08:08:44;;;;;;;17.58;15.65;;;;;;;39.16;10.51;100784.63;5040401;28;20044;-71
2024/03/21 08:11:11;;;;;;;17.13;14.15;;;;;;;38.75;10.75;100787.50;5053763;28;20071;-70
2024/03/21 08:13:37;;;;;;;15.73;13.73;;;;;;;38.86;10.93;100784.44;5026854;28;20470;-72
2024/03/21 08:16:03;;;;;;;15.43;13.90;;;;;;;38.95;11.01;100766.19;5041276;28;20039;-72
2024/03/21 08:18:30;;;;;;;12.75;11.40;;;;;;;39.39;10.61;100800.19;5048194;28;20073;-70
2024/03/21 08:20:57;;;;;;;12.93;10.15;;;;;;;38.95;9.85;100778.97;5070552;28;20506;-69
2024/03/21 08:23:26;;;;;;;11.77;9.90;;;;;;;37.78;9.63;100774.69;5060953;28;20036;-69
2024/03/21 08:25:52;;;;;;;16.13;12.93;;;;;;;37.74;10.15;100790.47;5041365;28;20138;-70
2024/03/21 08:28:18;;;;;;;11.82;10.18;;;;;;;37.40;9.99;100796.84;5056481;28;20171;-69
2024/03/21 08:30:47;;;;;;;12.68;10.60;;;;;;;36.57;10.03;100785.63;5056946;28;20098;-71
2024/03/21 08:33:15;;;;;;;12.05;9.82;;;;;;;36.42;10.49;100789.91;5060499;28;20835;-69
2024/03/21 08:35:42;;;;;;;12.80;11.25;;;;;;;36.15;10.71;100779.09;5057647;28;20055;-69
2024/03/21 08:38:09;;;;;;;14.45;11.13;;;;;;;36.83;11.11;100784.75;5055964;28;20091;-73
2024/03/21 08:40:36;;;;;;;16.48;12.30;;;;;;;38.15;10.71;100758.94;5072027;28;20036;-71
2024/03/21 08:43:03;;;;;;;19.60;12.80;;;;;;;38.64;9.96;100780.59;5044206;28;20036;-71
2024/03/21 08:45:29;;;;;;;16.70;13.30;;;;;;;39.00;9.94;100760.25;5055346;28;20040;-69
2024/03/21 08:47:57;;;;;;;15.07;12.80;;;;;;;39.11;9.79;100765.28;5053214;28;20052;-72
2024/03/21 08:50:24;;;;;;;13.10;11.68;;;;;;;38.59;10.18;100777.53;5025344;28;20040;-71
2024/03/21 08:52:59;;;;;;;15.13;11.48;;;;;;;38.64;10.01;100753.41;5038863;28;20140;-68
2024/03/21 08:55:25;;;;;;;14.38;10.55;;;;;;;38.08;9.96;100748.75;5052979;28;20040;-69
2024/03/21 08:57:51;;;;;;;17.05;11.68;;;;;;;38.15;9.91;100753.50;5072308;28;20055;-70
2024/03/21 09:00:17;;;;;;;14.15;11.38;;;;;;;39.17;10.37;100753.69;5056450;28;20399;-70
2024/03/21 09:02:43;;;;;;;14.55;13.05;;;;;;;39.84;10.40;100772.31;5044044;28;20043;-71
2024/03/21 09:05:10;;;;;;;13.65;12.27;;;;;;;40.61;10.26;100754.84;5031788;28;20094;-69
2024/03/21 09:07:37;;;;;;;14.07;12.10;;;;;;;40.88;10.19;100760.69;5041640;28;20567;-70
2024/03/21 09:10:03;;;;;;;16.35;12.40;;;;;;;41.29;9.98;100761.16;5039329;28;20047;-71
2024/03/21 09:12:29;;;;;;;16.30;13.20;;;;;;;41.05;9.03;100746.84;5041187;28;20457;-69
2024/03/21 09:14:55;;;;;;;14.48;12.30;;;;;;;40.72;10.08;100745.38;5054642;28;20676;-74
2024/03/21 09:17:21;;;;;;;13.55;11.60;;;;;;;40.79;10.01;100750.94;5054576;28;20158;-72
2024/03/21 09:19:47;;;;;;;15.00;12.35;;;;;;;41.18;9.96;100744.28;5045691;28;20126;-68
2024/03/21 09:22:13;;;;;;;12.27;11.02;;;;;;;41.25;10.04;100741.59;5046057;28;20048;-72
2024/03/21 09:24:44;;;;;;;11.07;9.93;;;;;;;41.28;9.60;100746.69;5078173;28;20135;-73
2024/03/21 09:27:10;;;;;;;13.10;9.93;;;;;;;40.70;9.27;100755.66;5051605;28;20131;-75
2024/03/21 09:29:36;;;;;;;15.77;10.32;;;;;;;40.39;9.86;100751.19;5046784;28;20256;-75
2024/03/21 09:32:02;;;;;;;11.75;8.95;;;;;;;40.56;10.28;100756.44;5052151;28;20045;-72
2024/03/21 09:34:28;;;;;;;9.77;8.82;;;;;;;41.20;9.93;100750.38;5049255;28;20094;-72
2024/03/21 09:36:56;;;;;;;8.75;7.35;;;;;;;39.74;9.14;100712.63;5053210;28;20048;-78
2024/03/21 09:39:23;;;;;;;9.70;7.57;;;;;;;38.29;9.39;100733.75;5054221;28;20044;-86
2024/03/21 09:41:57;;;;;;;7.85;7.05;;;;;;;38.44;10.00;100723.06;5076289;28;20048;-82
2024/03/21 09:44:24;;;;;;;7.90;7.00;;;;;;;38.60;9.94;100730.31;5042207;28;20565;-78
2024/03/21 09:46:51;;;;;;;7.20;6.57;;;;;;;38.64;9.71;100726.22;5052854;28;20031;-76
2024/03/21 09:49:18;;;;;;;7.05;6.35;;;;;;;38.48;9.71;100727.13;5077215;28;20074;-77
2024/03/21 09:51:44;;;;;;;7.05;6.35;;;;;;;38.01;9.40;100715.16;5058672;28;20056;-80
2024/03/21 09:54:11;;;;;;;7.35;5.97;;;;;;;37.10;9.40;100731.34;5066952;28;20507;-78
2024/03/21 09:56:39;;;;;;;10.52;6.72;;;;;;;37.05;9.64;100714.72;5039505;28;20510;-77
2024/03/21 09:59:15;;;;;;;6.93;5.95;;;;;;;36.38;9.19;100718.09;5052516;28;20044;-77
2024/03/21 10:01:41;;;;;;;7.18;6.47;;;;;;;35.79;9.57;100718.69;5046966;28;20039;-80
2024/03/21 10:04:07;;;;;;;7.75;6.13;;;;;;;34.94;10.60;100672.06;5048081;28;20498;-79
2024/03/21 10:06:43;;;;;;;8.63;6.20;;;;;;;36.09;11.17;100722.84;5045911;28;20802;-80
2024/03/21 10:09:11;;;;;;;6.32;5.75;;;;;;;36.51;10.72;100674.34;5047115;28;20051;-80
2024/03/21 10:11:37;;;;;;;8.43;5.97;;;;;;;37.39;10.89;100705.63;5076573;28;20040;-82
2024/03/21 10:14:03;;;;;;;9.52;6.25;;;;;;;36.58;10.48;100695.19;5043078;28;20048;-79
2024/03/21 10:16:29;;;;;;;6.57;5.82;;;;;;;35.84;9.94;100678.50;5088319;28;20603;-76
2024/03/21 10:18:55;;;;;;;7.90;5.75;;;;;;;34.91;10.52;100703.94;5039730;28;20096;-80
2024/03/21 10:21:23;;;;;;;6.55;5.95;;;;;;;32.89;10.78;100717.19;5060129;28;20033;-78
2024/03/21 10:24:03;;;;;;;10.80;6.55;;;;;;;30.58;11.24;100704.09;5055844;28;20040;-78
2024/03/21 10:26:29;;;;;;;8.15;6.07;;;;;;;28.47;11.49;100695.47;5032947;28;20040;-78
2024/03/21 10:28:56;;;;;;;7.47;6.45;;;;;;;26.80;12.33;100696.59;5079130;28;20032;-79
2024/03/21 10:31:23;;;;;;;7.05;6.35;;;;;;;25.83;12.49;100709.47;5060120;28;20466;-76
2024/03/21 10:33:53;;;;;;;10.73;6.35;;;;;;;24.52;13.11;100707.78;5082763;28;20039;-77
2024/03/21 10:36:20;;;;;;;7.72;6.57;;;;;;;23.49;13.34;100732.44;5063710;28;20032;-84
2024/03/21 10:38:47;;;;;;;7.78;5.80;;;;;;;22.14;14.08;100728.69;5070836;28;20104;-79
2024/03/21 10:41:27;;;;;;;8.70;6.45;;;;;;;20.71;14.99;100736.84;5077197;28;20161;-86
2024/03/21 10:44:03;;;;;;;10.23;5.97;;;;;;;19.41;15.70;100683.09;5078080;28;20068;-82
2024/03/21 10:46:30;;;;;;;9.02;5.93;;;;;;;18.92;16.01;100714.44;5057573;28;20122;-86
2024/03/21 10:49:03;;;;;;;7.78;6.38;;;;;;;18.55;16.96;100728.63;5062743;28;20036;-82
2024/03/21 10:51:45;;;;;;;8.23;6.03;;;;;;;18.40;17.67;100730.78;5083994;28;20044;-84
2024/03/21 10:54:19;;;;;;;7.47;5.70;;;;;;;18.16;17.99;100717.34;5058960;28;20442;-83
2024/03/21 10:56:57;;;;;;;7.30;5.78;;;;;;;17.49;18.23;100683.88;5058549;28;20135;-81
2024/03/21 10:59:23;;;;;;;9.68;5.95;;;;;;;17.31;18.54;100716.75;5054837;28;20032;-83
2024/03/21 11:01:49;;;;;;;7.70;5.60;;;;;;;16.69;18.87;100705.72;5040537;28;20044;-79
2024/03/21 11:04:15;;;;;;;7.10;4.80;;;;;;;15.91;19.25;100643.25;5056967;28;20054;-80
2024/03/21 11:06:46;;;;;;;9.48;5.43;;;;;;;15.92;19.72;100734.22;5072468;28;20044;-85
2024/03/21 11:09:16;;;;;;;6.93;5.07;;;;;;;15.42;19.78;100696.47;5065267;28;20123;-82
2024/03/21 11:11:43;;;;;;;7.63;5.28;;;;;;;15.06;20.97;100712.69;5075147;28;20047;-80
2024/03/21 11:14:10;;;;;;;9.00;5.13;;;;;;;14.61;21.11;100700.13;5056366;28;20043;-87
2024/03/21 11:16:40;;;;;;;7.70;5.20;;;;;;;14.08;21.41;100678.84;5051733;28;20922;-78
2024/03/21 11:19:09;;;;;;;8.68;5.25;;;;;;;13.89;21.69;100720.00;5053069;28;20098;-82
2024/03/21 11:21:35;;;;;;;9.60;5.32;;;;;;;13.34;21.99;100648.91;5048897;28;20044;-81